createdAt,value
2022-07-29T00:00:15.715Z,24.61
2022-07-29T00:03:03.937Z,24.58
2022-07-29T00:05:31.202Z,24.57
2022-07-29T00:07:58.234Z,24.57
2022-07-29T00:10:25.221Z,24.54
2022-07-29T00:12:52.467Z,24.53
2022-07-29T00:15:19.531Z,24.50
2022-07-29T00:17:46.532Z,24.44
2022-07-29T00:20:14.072Z,24.43
2022-07-29T00:22:41.327Z,24.36
2022-07-29T00:25:09.370Z,24.34
2022-07-29T00:27:37.238Z,24.32
2022-07-29T00:30:05.608Z,24.28
2022-07-29T00:32:33.968Z,24.25
2022-07-29T00:35:20.192Z,24.22
2022-07-29T00:37:47.424Z,24.18
2022-07-29T00:40:15.052Z,24.17
2022-07-29T00:42:49.338Z,24.17
2022-07-29T00:45:18.058Z,24.15
2022-07-29T00:47:45.603Z,24.13
2022-07-29T00:50:14.256Z,24.11
2022-07-29T00:55:31.364Z,24.05
2022-07-29T00:57:59.569Z,24.02
2022-07-29T01:00:29.356Z,24.01
2022-07-29T01:02:56.530Z,24.00
2022-07-29T01:05:50.342Z,23.98
2022-07-29T01:08:17.907Z,23.98
2022-07-29T01:10:46.502Z,23.97
2022-07-29T01:13:15.120Z,23.96
2022-07-29T01:15:49.245Z,23.93
2022-07-29T01:18:40.952Z,23.91
2022-07-29T01:21:32.547Z,23.89
2022-07-29T01:24:12.939Z,23.90
2022-07-29T01:26:43.727Z,23.90
2022-07-29T01:29:17.559Z,23.88
2022-07-29T01:31:58.961Z,23.89
2022-07-29T01:34:43.377Z,23.85
2022-07-29T01:37:20.910Z,23.87
2022-07-29T01:39:51.245Z,23.84
2022-07-29T01:42:33.111Z,23.82
2022-07-29T01:45:12.000Z,23.82
2022-07-29T01:47:47.311Z,23.83
2022-07-29T01:50:18.687Z,23.80
2022-07-29T01:52:57.792Z,23.80
2022-07-29T01:55:30.721Z,23.80
2022-07-29T01:58:00.107Z,23.75
2022-07-29T02:00:28.963Z,23.75
2022-07-29T02:02:57.166Z,23.73
2022-07-29T02:05:28.508Z,23.71
2022-07-29T02:07:59.030Z,23.70
2022-07-29T02:10:30.877Z,23.71
2022-07-29T02:13:03.522Z,23.70
2022-07-29T02:15:34.024Z,23.71
2022-07-29T02:18:06.826Z,23.64
2022-07-29T02:20:35.107Z,23.62
2022-07-29T02:23:03.750Z,23.57
2022-07-29T02:25:37.657Z,23.55
2022-07-29T02:28:07.752Z,23.52
2022-07-29T02:30:40.433Z,23.50
2022-07-29T02:33:11.050Z,23.49
2022-07-29T02:35:40.370Z,23.51
2022-07-29T02:38:28.046Z,23.48
2022-07-29T02:40:58.183Z,23.45
2022-07-29T02:43:27.033Z,23.44
2022-07-29T02:45:56.163Z,23.42
2022-07-29T02:48:32.948Z,23.40
2022-07-29T02:51:08.353Z,23.37
2022-07-29T02:53:38.458Z,23.36
2022-07-29T02:56:19.952Z,23.36
2022-07-29T02:58:58.125Z,23.34
2022-07-29T03:01:26.930Z,23.33
2022-07-29T03:03:55.144Z,23.32
2022-07-29T03:06:31.025Z,23.31
2022-07-29T03:09:13.042Z,23.30
2022-07-29T03:11:49.432Z,23.31
2022-07-29T03:14:21.997Z,23.31
2022-07-29T03:16:49.898Z,23.32
2022-07-29T03:19:17.918Z,23.33
2022-07-29T03:21:45.220Z,23.33
2022-07-29T03:24:35.146Z,23.34
2022-07-29T03:27:03.450Z,23.36
2022-07-29T03:29:33.607Z,23.36
2022-07-29T03:32:04.398Z,23.39
2022-07-29T03:34:36.169Z,23.38
2022-07-29T03:37:04.132Z,23.41
2022-07-29T03:39:35.936Z,23.39
2022-07-29T03:42:07.255Z,23.38
2022-07-29T03:44:36.205Z,23.36
2022-07-29T03:47:07.279Z,23.35
2022-07-29T03:49:39.605Z,23.34
2022-07-29T03:52:07.262Z,23.34
2022-07-29T03:54:34.856Z,23.33
2022-07-29T03:57:04.752Z,23.32
2022-07-29T03:59:34.898Z,23.32
2022-07-29T04:02:04.458Z,23.32
2022-07-29T04:04:34.568Z,23.34
2022-07-29T04:07:01.986Z,23.35
2022-07-29T04:09:29.828Z,23.33
2022-07-29T04:12:03.339Z,23.32
2022-07-29T04:14:35.287Z,23.34
2022-07-29T04:17:03.613Z,23.32
2022-07-29T04:19:30.932Z,23.33
2022-07-29T04:22:00.178Z,23.31
2022-07-29T04:24:27.618Z,23.29
2022-07-29T04:26:55.490Z,23.28
2022-07-29T04:29:23.298Z,23.27
2022-07-29T04:31:50.285Z,23.29
2022-07-29T04:34:17.855Z,23.27
2022-07-29T04:36:45.424Z,23.27
2022-07-29T04:39:13.240Z,23.23
2022-07-29T04:41:41.934Z,23.10
2022-07-29T04:44:11.026Z,22.99
2022-07-29T04:46:39.524Z,22.90
2022-07-29T04:49:09.853Z,22.82
2022-07-29T04:51:37.875Z,22.72
2022-07-29T04:54:06.816Z,22.60
2022-07-29T04:56:34.372Z,22.51
2022-07-29T04:59:04.241Z,22.45
2022-07-29T05:01:31.266Z,22.41
2022-07-29T05:04:00.528Z,22.41
2022-07-29T05:06:29.589Z,22.40
2022-07-29T05:08:57.463Z,22.40
2022-07-29T05:11:28.642Z,22.39
2022-07-29T05:13:57.770Z,22.38
2022-07-29T05:16:24.930Z,22.38
2022-07-29T05:18:54.111Z,22.35
2022-07-29T05:21:23.282Z,22.26
2022-07-29T05:23:50.666Z,22.12
2022-07-29T05:26:18.117Z,21.95
2022-07-29T05:28:45.473Z,21.81
2022-07-29T05:31:12.521Z,21.69
2022-07-29T05:33:39.621Z,21.53
2022-07-29T05:36:11.895Z,21.38
2022-07-29T05:38:42.022Z,21.23
2022-07-29T05:41:24.082Z,21.08
2022-07-29T05:43:51.542Z,20.97
2022-07-29T05:46:18.781Z,20.84
2022-07-29T05:48:45.847Z,20.72
2022-07-29T05:51:13.193Z,20.62
2022-07-29T05:53:40.657Z,20.53
2022-07-29T05:56:08.439Z,20.47
2022-07-29T05:58:35.805Z,20.39
2022-07-29T06:01:03.095Z,20.32
2022-07-29T06:03:31.514Z,20.23
2022-07-29T06:06:02.030Z,20.10
2022-07-29T06:08:29.044Z,19.97
2022-07-29T06:10:56.127Z,19.85
2022-07-29T06:13:23.645Z,19.76
2022-07-29T06:15:50.771Z,19.68
2022-07-29T06:18:18.329Z,19.66
2022-07-29T06:20:45.854Z,19.67
2022-07-29T06:23:13.664Z,19.66
2022-07-29T06:25:41.945Z,19.66
2022-07-29T06:28:10.193Z,19.65
2022-07-29T06:30:39.139Z,19.60
2022-07-29T06:33:06.495Z,19.55
2022-07-29T06:35:42.472Z,19.48
2022-07-29T06:38:31.275Z,19.44
2022-07-29T06:41:01.963Z,19.39
2022-07-29T06:43:52.166Z,19.36
2022-07-29T06:46:23.356Z,19.34
2022-07-29T06:48:52.762Z,19.34
2022-07-29T06:51:22.367Z,19.36
2022-07-29T06:53:59.075Z,19.43
2022-07-29T06:56:31.091Z,19.51
2022-07-29T06:58:58.687Z,19.55
2022-07-29T07:01:26.038Z,19.54
2022-07-29T07:03:53.249Z,19.54
2022-07-29T07:06:20.569Z,19.55
2022-07-29T07:08:47.831Z,19.57
2022-07-29T07:11:14.873Z,19.60
2022-07-29T07:13:42.167Z,19.61
2022-07-29T07:16:09.785Z,19.67
2022-07-29T07:18:41.342Z,19.72
2022-07-29T07:21:09.794Z,19.77
2022-07-29T07:23:36.834Z,19.81
2022-07-29T07:26:04.202Z,19.84
2022-07-29T07:28:31.660Z,19.85
2022-07-29T07:30:59.147Z,19.87
2022-07-29T07:33:26.630Z,19.88
2022-07-29T07:35:54.254Z,19.92
2022-07-29T07:38:21.292Z,19.91
2022-07-29T07:40:48.403Z,19.87
2022-07-29T07:43:15.819Z,19.83
2022-07-29T07:45:43.036Z,19.83
2022-07-29T07:48:13.657Z,19.83
2022-07-29T07:50:41.874Z,19.85
2022-07-29T07:53:09.053Z,19.90
2022-07-29T07:56:08.233Z,19.92
2022-07-29T07:58:32.787Z,19.96
2022-07-29T08:01:00.641Z,19.99
2022-07-29T08:03:27.849Z,20.03
2022-07-29T08:05:55.529Z,20.12
2022-07-29T08:08:22.770Z,20.19
2022-07-29T08:11:02.242Z,20.25
2022-07-29T08:13:33.206Z,20.35
2022-07-29T08:16:02.098Z,20.46
2022-07-29T08:18:31.353Z,20.55
2022-07-29T08:21:01.688Z,20.61
2022-07-29T08:23:46.148Z,20.65
2022-07-29T08:26:16.590Z,20.77
2022-07-29T08:28:51.353Z,20.86
2022-07-29T08:31:20.271Z,20.91
2022-07-29T08:33:50.132Z,20.96
2022-07-29T08:36:17.623Z,21.00
2022-07-29T08:38:45.901Z,21.02
2022-07-29T08:41:13.491Z,21.10
2022-07-29T08:43:42.108Z,21.14
2022-07-29T08:46:09.833Z,21.11
2022-07-29T08:48:37.725Z,21.11
2022-07-29T08:51:06.279Z,21.06
2022-07-29T08:53:34.766Z,21.03
2022-07-29T08:56:03.106Z,21.03
2022-07-29T08:58:36.632Z,21.08
2022-07-29T09:01:05.074Z,21.17
2022-07-29T09:03:37.625Z,21.19
2022-07-29T09:06:05.597Z,21.28
2022-07-29T09:08:34.495Z,21.45
2022-07-29T09:11:03.873Z,21.64
2022-07-29T09:13:31.362Z,21.83
2022-07-29T09:15:58.864Z,21.96
2022-07-29T09:18:38.530Z,22.06
2022-07-29T09:21:26.794Z,22.14
2022-07-29T09:24:15.008Z,22.15
2022-07-29T09:26:45.875Z,22.05
2022-07-29T09:29:19.487Z,21.90
2022-07-29T09:31:49.914Z,21.76
2022-07-29T09:34:22.614Z,21.67
2022-07-29T09:36:52.880Z,21.64
2022-07-29T09:39:50.128Z,21.58
2022-07-29T09:42:47.534Z,21.59
2022-07-29T09:45:58.512Z,21.65
2022-07-29T09:48:28.443Z,21.65
2022-07-29T09:50:56.309Z,21.60
2022-07-29T09:53:36.979Z,21.49
2022-07-29T09:56:07.275Z,21.43
2022-07-29T09:58:36.191Z,21.40
2022-07-29T10:01:04.418Z,21.45
2022-07-29T10:03:32.447Z,21.50
2022-07-29T10:06:15.125Z,21.60
2022-07-29T10:08:44.182Z,21.75
2022-07-29T10:11:18.921Z,21.91
2022-07-29T10:13:47.963Z,21.99
2022-07-29T10:16:16.657Z,21.98
2022-07-29T10:18:45.872Z,22.00
2022-07-29T10:21:35.458Z,22.03
2022-07-29T10:24:02.515Z,22.06
2022-07-29T10:26:31.595Z,22.02
2022-07-29T10:28:59.630Z,21.98
2022-07-29T10:32:01.707Z,21.99
2022-07-29T10:35:14.297Z,21.97
2022-07-29T10:38:00.459Z,21.91
2022-07-29T10:41:06.694Z,21.84
2022-07-29T10:43:43.858Z,21.81
2022-07-29T10:46:15.586Z,21.79
2022-07-29T10:49:17.272Z,21.80
2022-07-29T10:52:06.775Z,21.75
2022-07-29T10:54:37.613Z,21.68
2022-07-29T11:00:16.701Z,21.53
2022-07-29T11:02:53.098Z,21.51
2022-07-29T11:05:22.238Z,21.46
2022-07-29T11:08:19.476Z,21.26
2022-07-29T11:10:54.617Z,21.01
2022-07-29T11:13:46.559Z,20.87
2022-07-29T11:16:16.139Z,20.82
2022-07-29T11:19:13.339Z,20.87
2022-07-29T11:21:55.135Z,20.93
2022-07-29T11:24:35.018Z,20.94
2022-07-29T11:27:23.341Z,20.98
2022-07-29T11:30:04.806Z,20.96
2022-07-29T11:32:41.407Z,21.01
2022-07-29T11:35:19.489Z,21.07
2022-07-29T11:38:23.791Z,21.13
2022-07-29T11:41:32.639Z,21.21
2022-07-29T11:44:03.016Z,21.34
2022-07-29T11:46:53.967Z,21.45
2022-07-29T11:49:32.490Z,21.54
2022-07-29T11:52:04.854Z,21.58
2022-07-29T11:54:52.267Z,21.63
2022-07-29T11:57:22.536Z,21.64
2022-07-29T11:59:50.813Z,21.68
2022-07-29T12:02:37.823Z,21.68
2022-07-29T12:05:11.550Z,21.74
2022-07-29T12:07:46.017Z,21.73
2022-07-29T12:10:19.839Z,21.72
2022-07-29T12:12:56.966Z,21.67
2022-07-29T12:15:45.691Z,21.68
2022-07-29T12:18:16.553Z,21.65
2022-07-29T12:20:51.571Z,21.62
2022-07-29T12:23:21.702Z,21.59
2022-07-29T12:25:49.982Z,21.58
2022-07-29T12:28:26.646Z,21.61
2022-07-29T12:30:55.280Z,21.64
2022-07-29T12:33:27.510Z,21.64
2022-07-29T12:36:06.961Z,21.64
2022-07-29T12:38:41.914Z,21.64
2022-07-29T12:41:09.614Z,21.64
2022-07-29T12:43:37.040Z,21.61
2022-07-29T12:46:16.957Z,21.62
2022-07-29T12:48:44.942Z,21.63
2022-07-29T12:51:15.671Z,21.64
2022-07-29T12:53:43.185Z,21.62
2022-07-29T12:59:14.424Z,21.64
2022-07-29T13:01:41.811Z,21.67
2022-07-29T13:04:09.200Z,21.68
2022-07-29T13:06:46.198Z,21.70
2022-07-29T13:09:20.518Z,21.71
2022-07-29T13:11:50.681Z,21.70
2022-07-29T13:14:35.767Z,21.67
2022-07-29T13:17:07.734Z,21.68
2022-07-29T13:19:43.773Z,21.75
2022-07-29T13:22:16.477Z,21.78
2022-07-29T13:25:10.493Z,21.81
2022-07-29T13:27:41.713Z,21.78
2022-07-29T13:30:10.461Z,21.76
2022-07-29T13:32:41.758Z,21.78
2022-07-29T13:35:11.074Z,21.79
2022-07-29T13:37:39.603Z,21.80
2022-07-29T13:40:09.676Z,21.81
2022-07-29T13:42:36.840Z,21.83
2022-07-29T13:45:05.566Z,21.85
2022-07-29T13:47:33.531Z,21.93
2022-07-29T13:50:06.213Z,22.07
2022-07-29T13:52:35.649Z,22.26
2022-07-29T13:55:06.521Z,22.33
2022-07-29T13:57:35.218Z,22.35
2022-07-29T14:00:09.612Z,22.39
2022-07-29T14:02:40.641Z,22.46
2022-07-29T14:05:09.140Z,22.54
2022-07-29T14:07:36.761Z,22.65
2022-07-29T14:10:05.212Z,22.74
2022-07-29T14:12:33.025Z,22.86
2022-07-29T14:15:01.455Z,23.08
2022-07-29T14:17:28.896Z,23.22
2022-07-29T14:19:56.193Z,23.33
2022-07-29T14:22:25.423Z,23.43
2022-07-29T14:24:52.730Z,23.50
2022-07-29T14:27:20.840Z,23.42
2022-07-29T14:30:05.897Z,23.35
2022-07-29T14:32:33.147Z,23.32
2022-07-29T14:35:05.109Z,23.37
2022-07-29T14:37:39.887Z,23.41
2022-07-29T14:40:09.135Z,23.38
2022-07-29T14:42:38.722Z,23.34
2022-07-29T14:45:07.915Z,23.27
2022-07-29T14:47:35.723Z,23.21
2022-07-29T14:50:06.041Z,23.17
2022-07-29T14:52:35.278Z,23.14
2022-07-29T14:55:05.433Z,23.10
2022-07-29T14:57:44.557Z,23.06
2022-07-29T15:00:13.085Z,22.98
2022-07-29T15:03:00.949Z,22.87
2022-07-29T15:05:33.255Z,22.83
2022-07-29T15:08:01.171Z,22.81
2022-07-29T15:10:32.174Z,22.76
2022-07-29T15:13:07.047Z,22.73
2022-07-29T15:15:34.887Z,22.70
2022-07-29T15:18:02.337Z,22.66
2022-07-29T15:20:39.244Z,22.57
2022-07-29T15:23:10.495Z,22.53
2022-07-29T15:25:41.642Z,22.54
2022-07-29T15:28:10.844Z,22.53
2022-07-29T15:30:53.296Z,22.55
2022-07-29T15:33:20.679Z,22.56
2022-07-29T15:35:48.225Z,22.56
2022-07-29T15:38:19.444Z,22.58
2022-07-29T15:40:47.764Z,22.53
2022-07-29T15:43:19.170Z,22.51
2022-07-29T15:46:07.473Z,22.53
2022-07-29T15:48:39.541Z,22.51
2022-07-29T15:51:06.629Z,22.45
2022-07-29T15:53:35.243Z,22.39
2022-07-29T15:56:03.713Z,22.35
2022-07-29T15:58:31.628Z,22.31
2022-07-29T16:00:59.035Z,22.27
2022-07-29T16:03:26.409Z,22.27
2022-07-29T16:05:53.409Z,22.25
2022-07-29T16:08:20.558Z,22.23
2022-07-29T16:10:49.214Z,22.20
2022-07-29T16:13:17.852Z,22.16
2022-07-29T16:16:02.685Z,22.18
2022-07-29T16:18:34.913Z,22.21
2022-07-29T16:21:01.985Z,22.19
2022-07-29T16:23:29.983Z,22.19
2022-07-29T16:26:00.148Z,22.20
2022-07-29T16:28:29.742Z,22.21
2022-07-29T16:30:58.001Z,22.22
2022-07-29T16:33:25.591Z,22.21
2022-07-29T16:35:53.239Z,22.19
2022-07-29T16:38:22.282Z,22.17
2022-07-29T16:40:49.829Z,22.15
2022-07-29T16:43:23.815Z,22.14
2022-07-29T16:45:51.441Z,22.10
2022-07-29T16:48:18.895Z,22.10
2022-07-29T16:50:46.395Z,22.10
2022-07-29T16:53:13.733Z,22.10
2022-07-29T16:55:42.282Z,22.12
2022-07-29T16:58:10.985Z,22.11
2022-07-29T17:00:41.757Z,22.10
2022-07-29T17:03:09.106Z,22.08
2022-07-29T17:05:52.038Z,22.07
2022-07-29T17:08:22.907Z,22.09
2022-07-29T17:10:50.437Z,22.07
2022-07-29T17:13:17.971Z,22.02
2022-07-29T17:15:46.902Z,21.96
2022-07-29T17:18:14.559Z,21.91
2022-07-29T17:20:42.313Z,21.85
2022-07-29T17:23:09.574Z,21.81
2022-07-29T17:25:39.903Z,21.77
2022-07-29T17:28:07.252Z,21.78
2022-07-29T17:30:37.845Z,21.75
2022-07-29T17:33:07.838Z,21.73
2022-07-29T17:36:02.992Z,21.72
2022-07-29T17:38:31.564Z,21.66
2022-07-29T17:41:01.262Z,21.63
2022-07-29T17:43:37.419Z,21.61
2022-07-29T17:46:08.075Z,21.60
2022-07-29T17:48:37.078Z,21.57
2022-07-29T17:51:11.847Z,21.50
2022-07-29T17:53:40.195Z,21.46
2022-07-29T17:56:08.267Z,21.45
2022-07-29T17:58:35.891Z,21.44
2022-07-29T18:01:03.421Z,21.41
2022-07-29T18:03:33.956Z,21.38
2022-07-29T18:06:02.234Z,21.36
2022-07-29T18:08:37.849Z,21.33
2022-07-29T18:11:05.311Z,21.33
2022-07-29T18:13:32.610Z,21.33
2022-07-29T18:16:02.905Z,21.30
2022-07-29T18:18:32.767Z,21.31
2022-07-29T18:20:59.815Z,21.32
2022-07-29T18:23:31.199Z,21.30
2022-07-29T18:25:58.396Z,21.28
2022-07-29T18:28:25.799Z,21.27
2022-07-29T18:30:55.872Z,21.22
2022-07-29T18:33:23.436Z,21.14
2022-07-29T18:36:10.575Z,21.10
2022-07-29T18:38:43.107Z,21.11
2022-07-29T18:41:11.896Z,21.12
2022-07-29T18:43:39.516Z,21.12
2022-07-29T18:46:07.140Z,21.13
2022-07-29T18:48:37.137Z,21.12
2022-07-29T18:51:09.390Z,21.09
2022-07-29T18:53:37.744Z,21.07
2022-07-29T18:56:07.510Z,21.04
2022-07-29T18:58:37.538Z,21.03
2022-07-29T19:01:07.087Z,21.01
2022-07-29T19:03:34.199Z,21.00
2022-07-29T19:06:03.291Z,20.96
2022-07-29T19:08:31.627Z,20.92
2022-07-29T19:10:59.003Z,20.91
2022-07-29T19:13:28.971Z,20.84
2022-07-29T19:16:07.480Z,20.83
2022-07-29T19:18:45.499Z,20.82
2022-07-29T19:21:13.032Z,20.79
2022-07-29T19:24:01.671Z,20.80
2022-07-29T19:26:30.406Z,20.82
2022-07-29T19:29:00.239Z,20.82
2022-07-29T19:31:33.531Z,20.80
2022-07-29T19:34:02.857Z,20.83
2022-07-29T19:36:31.433Z,20.82
2022-07-29T19:39:00.344Z,20.85
2022-07-29T19:41:28.847Z,20.88
2022-07-29T19:44:00.019Z,20.91
2022-07-29T19:46:30.749Z,20.91
2022-07-29T19:49:00.087Z,20.86
2022-07-29T19:51:31.236Z,20.86
2022-07-29T19:53:59.350Z,20.83
2022-07-29T19:56:30.178Z,20.79
2022-07-29T19:58:58.843Z,20.73
2022-07-29T20:01:27.031Z,20.66
2022-07-29T20:03:55.384Z,20.66
2022-07-29T20:06:23.239Z,20.61
2022-07-29T20:08:50.678Z,20.59
2022-07-29T20:11:19.050Z,20.59
2022-07-29T20:13:46.186Z,20.60
2022-07-29T20:16:13.605Z,20.61
2022-07-29T20:18:40.707Z,20.60
2022-07-29T20:21:07.745Z,20.59
2022-07-29T20:23:35.110Z,20.58
2022-07-29T20:26:03.438Z,20.54
2022-07-29T20:28:33.238Z,20.54
2022-07-29T20:31:00.544Z,20.49
2022-07-29T20:33:27.527Z,20.44
2022-07-29T20:35:54.618Z,20.42
2022-07-29T20:38:21.994Z,20.36
2022-07-29T20:40:49.783Z,20.34
2022-07-29T20:43:16.765Z,20.30
2022-07-29T20:45:44.141Z,20.30
2022-07-29T20:48:11.262Z,20.27
2022-07-29T20:50:38.335Z,20.27
2022-07-29T20:53:05.738Z,20.28
2022-07-29T20:55:35.834Z,20.30
2022-07-29T20:58:03.084Z,20.34
2022-07-29T21:00:31.252Z,20.37
2022-07-29T21:02:58.411Z,20.34
2022-07-29T21:05:25.474Z,20.33
2022-07-29T21:07:56.594Z,20.34
2022-07-29T21:10:25.909Z,20.25
2022-07-29T21:12:53.141Z,20.01
2022-07-29T21:15:21.727Z,19.71
2022-07-29T21:17:48.833Z,19.48
2022-07-29T21:20:17.951Z,19.30
2022-07-29T21:22:45.425Z,19.26
2022-07-29T21:25:12.566Z,19.22
2022-07-29T21:27:58.295Z,19.07
2022-07-29T21:30:25.334Z,19.01
2022-07-29T21:32:52.654Z,18.96
2022-07-29T21:36:01.569Z,18.88
2022-07-29T21:38:06.954Z,18.70
2022-07-29T21:40:33.964Z,18.61
2022-07-29T21:43:01.223Z,18.60
2022-07-29T21:45:28.619Z,18.65
2022-07-29T21:47:55.650Z,18.67
2022-07-29T21:50:22.729Z,18.67
2022-07-29T21:52:50.008Z,18.67
2022-07-29T21:55:18.576Z,18.68
2022-07-29T21:57:46.384Z,18.70
2022-07-29T22:00:15.872Z,18.71
2022-07-29T22:02:43.698Z,18.70
2022-07-29T22:05:12.165Z,18.67
2022-07-29T22:07:54.231Z,18.65
2022-07-29T22:10:22.201Z,18.65
2022-07-29T22:12:54.342Z,18.68
2022-07-29T22:15:21.970Z,18.68
2022-07-29T22:17:49.053Z,18.68
2022-07-29T22:20:16.352Z,18.67
2022-07-29T22:22:43.544Z,18.66
2022-07-29T22:25:11.289Z,18.67
2022-07-29T22:27:38.961Z,18.65
2022-07-29T22:30:07.361Z,18.66
2022-07-29T22:32:34.801Z,18.70
2022-07-29T22:35:02.068Z,18.73
2022-07-29T22:37:29.114Z,18.76
2022-07-29T22:39:58.086Z,18.80
2022-07-29T22:42:25.710Z,18.82
2022-07-29T22:44:54.634Z,18.83
2022-07-29T22:47:46.702Z,18.84
2022-07-29T22:50:09.119Z,18.83
2022-07-29T22:52:36.111Z,18.80
2022-07-29T22:55:05.117Z,18.83
2022-07-29T22:57:32.599Z,18.87
2022-07-29T23:00:02.246Z,18.91
2022-07-29T23:02:29.468Z,18.94
2022-07-29T23:04:57.220Z,18.97
2022-07-29T23:07:24.770Z,19.01
2022-07-29T23:09:54.358Z,19.03
2022-07-29T23:12:21.686Z,19.01
2022-07-29T23:14:48.642Z,19.00
2022-07-29T23:17:15.660Z,19.02
2022-07-29T23:19:43.116Z,18.99
2022-07-29T23:22:11.759Z,18.99
2022-07-29T23:24:38.866Z,18.98
2022-07-29T23:27:08.349Z,18.98
2022-07-29T23:29:36.885Z,18.97
2022-07-29T23:32:04.274Z,18.96
2022-07-29T23:34:31.542Z,18.96
2022-07-29T23:36:58.988Z,18.96
2022-07-29T23:39:26.433Z,18.96
2022-07-29T23:41:53.724Z,18.96
2022-07-29T23:44:20.867Z,18.96
2022-07-29T23:46:48.098Z,18.96
2022-07-29T23:49:15.657Z,18.96
2022-07-29T23:51:42.778Z,18.95
2022-07-29T23:54:09.757Z,18.96
2022-07-29T23:56:37.027Z,18.97
2022-07-29T23:59:05.936Z,18.97
